sensor_id;sensor_type;location;lat;lon;timestamp;P1;durP1;ratioP1;P2;durP2;ratioP2
46230;SDS011;31949;51.404;-0.038;2024-02-15T00:01:42;0.93;;;0.65;;
46230;SDS011;31949;51.404;-0.038;2024-02-15T00:04:10;1.15;;;0.80;;
46230;SDS011;31949;51.404;-0.038;2024-02-15T00:06:37;1.30;;;0.50;;
46230;SDS011;31949;51.404;-0.038;2024-02-15T00:09:05;0.68;;;0.38;;
46230;SDS011;31949;51.404;-0.038;2024-02-15T00:11:32;0.50;;;0.30;;
46230;SDS011;31949;51.404;-0.038;2024-02-15T00:14:00;1.75;;;0.73;;
46230;SDS011;31949;51.404;-0.038;2024-02-15T00:16:27;1.58;;;0.40;;
46230;SDS011;31949;51.404;-0.038;2024-02-15T00:18:55;2.20;;;0.43;;
46230;SDS011;31949;51.404;-0.038;2024-02-15T00:21:22;0.55;;;0.40;;
46230;SDS011;31949;51.404;-0.038;2024-02-15T00:23:50;0.68;;;0.40;;
46230;SDS011;31949;51.404;-0.038;2024-02-15T00:26:17;1.55;;;0.65;;
46230;SDS011;31949;51.404;-0.038;2024-02-15T00:28:45;0.50;;;0.50;;
46230;SDS011;31949;51.404;-0.038;2024-02-15T00:31:13;1.38;;;0.43;;
46230;SDS011;31949;51.404;-0.038;2024-02-15T00:33:40;0.98;;;0.80;;
46230;SDS011;31949;51.404;-0.038;2024-02-15T00:36:09;2.72;;;1.10;;
46230;SDS011;31949;51.404;-0.038;2024-02-15T00:38:37;0.93;;;0.60;;
46230;SDS011;31949;51.404;-0.038;2024-02-15T00:41:04;1.73;;;1.63;;
46230;SDS011;31949;51.404;-0.038;2024-02-15T00:43:34;1.92;;;1.00;;
46230;SDS011;31949;51.404;-0.038;2024-02-15T00:46:03;1.63;;;1.20;;
46230;SDS011;31949;51.404;-0.038;2024-02-15T00:48:30;2.88;;;1.35;;
46230;SDS011;31949;51.404;-0.038;2024-02-15T00:50:58;2.60;;;1.30;;
46230;SDS011;31949;51.404;-0.038;2024-02-15T00:53:26;2.47;;;1.50;;
46230;SDS011;31949;51.404;-0.038;2024-02-15T00:55:55;3.33;;;1.63;;
46230;SDS011;31949;51.404;-0.038;2024-02-15T00:58:22;5.25;;;1.48;;
46230;SDS011;31949;51.404;-0.038;2024-02-15T01:00:50;2.17;;;1.40;;
46230;SDS011;31949;51.404;-0.038;2024-02-15T01:03:18;2.22;;;1.95;;
46230;SDS011;31949;51.404;-0.038;2024-02-15T01:05:46;4.15;;;1.90;;
46230;SDS011;31949;51.404;-0.038;2024-02-15T01:08:13;1.80;;;1.30;;
46230;SDS011;31949;51.404;-0.038;2024-02-15T01:10:40;1.80;;;1.60;;
46230;SDS011;31949;51.404;-0.038;2024-02-15T01:13:07;3.13;;;1.40;;
46230;SDS011;31949;51.404;-0.038;2024-02-15T01:15:36;5.80;;;1.52;;
46230;SDS011;31949;51.404;-0.038;2024-02-15T01:18:05;1.30;;;1.00;;
46230;SDS011;31949;51.404;-0.038;2024-02-15T01:20:33;1.92;;;1.23;;
46230;SDS011;31949;51.404;-0.038;2024-02-15T01:23:00;1.80;;;0.90;;
46230;SDS011;31949;51.404;-0.038;2024-02-15T01:25:27;2.50;;;1.20;;
46230;SDS011;31949;51.404;-0.038;2024-02-15T01:27:55;2.70;;;1.20;;
46230;SDS011;31949;51.404;-0.038;2024-02-15T01:30:22;2.88;;;1.40;;
46230;SDS011;31949;51.404;-0.038;2024-02-15T01:32:49;5.05;;;2.05;;
46230;SDS011;31949;51.404;-0.038;2024-02-15T01:35:17;2.78;;;1.58;;
46230;SDS011;31949;51.404;-0.038;2024-02-15T01:37:44;1.90;;;1.60;;
46230;SDS011;31949;51.404;-0.038;2024-02-15T01:40:11;2.10;;;1.20;;
46230;SDS011;31949;51.404;-0.038;2024-02-15T01:42:41;4.00;;;2.10;;
46230;SDS011;31949;51.404;-0.038;2024-02-15T01:45:11;3.08;;;1.75;;
46230;SDS011;31949;51.404;-0.038;2024-02-15T01:47:39;3.80;;;2.30;;
46230;SDS011;31949;51.404;-0.038;2024-02-15T01:50:10;3.45;;;3.17;;
46230;SDS011;31949;51.404;-0.038;2024-02-15T01:52:39;3.83;;;1.73;;
46230;SDS011;31949;51.404;-0.038;2024-02-15T01:55:10;4.45;;;2.53;;
46230;SDS011;31949;51.404;-0.038;2024-02-15T01:57:37;1.77;;;1.60;;
46230;SDS011;31949;51.404;-0.038;2024-02-15T02:00:06;2.25;;;1.45;;
46230;SDS011;31949;51.404;-0.038;2024-02-15T02:02:46;2.08;;;1.85;;
46230;SDS011;31949;51.404;-0.038;2024-02-15T02:05:14;1.95;;;1.40;;
46230;SDS011;31949;51.404;-0.038;2024-02-15T02:07:41;5.85;;;1.77;;
46230;SDS011;31949;51.404;-0.038;2024-02-15T02:10:09;3.40;;;1.98;;
46230;SDS011;31949;51.404;-0.038;2024-02-15T02:12:41;2.15;;;1.63;;
46230;SDS011;31949;51.404;-0.038;2024-02-15T02:15:08;3.20;;;2.90;;
46230;SDS011;31949;51.404;-0.038;2024-02-15T02:17:38;3.00;;;2.17;;
46230;SDS011;31949;51.404;-0.038;2024-02-15T02:20:06;3.10;;;2.28;;
46230;SDS011;31949;51.404;-0.038;2024-02-15T02:22:35;2.28;;;2.08;;
46230;SDS011;31949;51.404;-0.038;2024-02-15T02:25:04;2.75;;;1.90;;
46230;SDS011;31949;51.404;-0.038;2024-02-15T02:27:33;2.08;;;1.88;;
46230;SDS011;31949;51.404;-0.038;2024-02-15T02:30:05;1.30;;;1.20;;
46230;SDS011;31949;51.404;-0.038;2024-02-15T02:32:42;2.20;;;1.52;;
46230;SDS011;31949;51.404;-0.038;2024-02-15T02:35:09;1.10;;;1.02;;
46230;SDS011;31949;51.404;-0.038;2024-02-15T02:37:40;1.38;;;1.27;;
46230;SDS011;31949;51.404;-0.038;2024-02-15T02:40:07;1.45;;;0.50;;
46230;SDS011;31949;51.404;-0.038;2024-02-15T02:42:36;0.40;;;0.40;;
46230;SDS011;31949;51.404;-0.038;2024-02-15T02:45:13;1.40;;;0.93;;
46230;SDS011;31949;51.404;-0.038;2024-02-15T02:47:40;0.43;;;0.20;;
46230;SDS011;31949;51.404;-0.038;2024-02-15T02:50:08;0.52;;;0.20;;
46230;SDS011;31949;51.404;-0.038;2024-02-15T02:52:35;0.10;;;0.10;;
46230;SDS011;31949;51.404;-0.038;2024-02-15T02:55:05;0.13;;;0.10;;
46230;SDS011;31949;51.404;-0.038;2024-02-15T02:57:36;0.40;;;0.25;;
46230;SDS011;31949;51.404;-0.038;2024-02-15T03:00:09;1.45;;;0.20;;
46230;SDS011;31949;51.404;-0.038;2024-02-15T03:02:39;0.17;;;0.10;;
46230;SDS011;31949;51.404;-0.038;2024-02-15T03:05:07;0.35;;;0.15;;
46230;SDS011;31949;51.404;-0.038;2024-02-15T03:07:35;0.20;;;0.20;;
46230;SDS011;31949;51.404;-0.038;2024-02-15T03:10:04;0.10;;;0.10;;
46230;SDS011;31949;51.404;-0.038;2024-02-15T03:12:34;0.20;;;0.10;;
46230;SDS011;31949;51.404;-0.038;2024-02-15T03:15:06;0.35;;;0.20;;
46230;SDS011;31949;51.404;-0.038;2024-02-15T03:17:42;0.10;;;0.10;;
46230;SDS011;31949;51.404;-0.038;2024-02-15T03:20:13;0.30;;;0.20;;
46230;SDS011;31949;51.404;-0.038;2024-02-15T03:22:55;0.32;;;0.30;;
46230;SDS011;31949;51.404;-0.038;2024-02-15T03:25:24;0.80;;;0.20;;
46230;SDS011;31949;51.404;-0.038;2024-02-15T03:27:53;0.00;;;0.00;;
46230;SDS011;31949;51.404;-0.038;2024-02-15T03:30:23;0.45;;;0.20;;
46230;SDS011;31949;51.404;-0.038;2024-02-15T03:32:56;0.30;;;0.15;;
46230;SDS011;31949;51.404;-0.038;2024-02-15T03:35:24;0.20;;;0.20;;
46230;SDS011;31949;51.404;-0.038;2024-02-15T03:37:53;1.13;;;0.20;;
46230;SDS011;31949;51.404;-0.038;2024-02-15T03:40:20;0.35;;;0.20;;
46230;SDS011;31949;51.404;-0.038;2024-02-15T03:42:48;0.57;;;0.28;;
46230;SDS011;31949;51.404;-0.038;2024-02-15T03:45:18;1.15;;;0.30;;
46230;SDS011;31949;51.404;-0.038;2024-02-15T03:47:46;0.77;;;0.20;;
46230;SDS011;31949;51.404;-0.038;2024-02-15T03:50:17;0.22;;;0.22;;
46230;SDS011;31949;51.404;-0.038;2024-02-15T03:52:45;0.20;;;0.20;;
46230;SDS011;31949;51.404;-0.038;2024-02-15T03:55:13;0.15;;;0.15;;
46230;SDS011;31949;51.404;-0.038;2024-02-15T03:57:40;0.10;;;0.10;;
46230;SDS011;31949;51.404;-0.038;2024-02-15T04:00:10;1.77;;;0.22;;
46230;SDS011;31949;51.404;-0.038;2024-02-15T04:02:39;0.30;;;0.25;;
46230;SDS011;31949;51.404;-0.038;2024-02-15T04:05:09;0.50;;;0.30;;
46230;SDS011;31949;51.404;-0.038;2024-02-15T04:07:39;0.38;;;0.20;;
46230;SDS011;31949;51.404;-0.038;2024-02-15T04:10:06;0.63;;;0.40;;
46230;SDS011;31949;51.404;-0.038;2024-02-15T04:12:48;0.50;;;0.40;;
46230;SDS011;31949;51.404;-0.038;2024-02-15T04:15:15;0.50;;;0.30;;
46230;SDS011;31949;51.404;-0.038;2024-02-15T04:17:44;0.65;;;0.40;;
46230;SDS011;31949;51.404;-0.038;2024-02-15T04:20:12;0.80;;;0.43;;
46230;SDS011;31949;51.404;-0.038;2024-02-15T04:22:42;2.10;;;0.60;;
46230;SDS011;31949;51.404;-0.038;2024-02-15T04:25:10;1.17;;;0.60;;
46230;SDS011;31949;51.404;-0.038;2024-02-15T04:27:44;1.48;;;0.63;;
46230;SDS011;31949;51.404;-0.038;2024-02-15T04:30:13;1.92;;;0.80;;
46230;SDS011;31949;51.404;-0.038;2024-02-15T04:32:43;2.47;;;0.73;;
46230;SDS011;31949;51.404;-0.038;2024-02-15T04:35:10;0.70;;;0.68;;
46230;SDS011;31949;51.404;-0.038;2024-02-15T04:37:40;1.88;;;0.50;;
46230;SDS011;31949;51.404;-0.038;2024-02-15T04:40:08;2.85;;;0.93;;
46230;SDS011;31949;51.404;-0.038;2024-02-15T04:42:38;2.25;;;1.10;;
46230;SDS011;31949;51.404;-0.038;2024-02-15T04:45:08;1.77;;;0.80;;
46230;SDS011;31949;51.404;-0.038;2024-02-15T04:47:49;1.75;;;1.10;;
46230;SDS011;31949;51.404;-0.038;2024-02-15T04:50:19;2.55;;;1.10;;
46230;SDS011;31949;51.404;-0.038;2024-02-15T04:52:47;4.10;;;1.80;;
46230;SDS011;31949;51.404;-0.038;2024-02-15T04:55:16;2.92;;;1.50;;
46230;SDS011;31949;51.404;-0.038;2024-02-15T04:57:44;2.78;;;1.80;;
46230;SDS011;31949;51.404;-0.038;2024-02-15T05:00:16;3.35;;;1.67;;
46230;SDS011;31949;51.404;-0.038;2024-02-15T05:02:47;5.43;;;2.63;;
46230;SDS011;31949;51.404;-0.038;2024-02-15T05:05:16;4.13;;;2.22;;
46230;SDS011;31949;51.404;-0.038;2024-02-15T05:07:44;2.72;;;2.15;;
46230;SDS011;31949;51.404;-0.038;2024-02-15T05:10:11;4.88;;;2.13;;
46230;SDS011;31949;51.404;-0.038;2024-02-15T05:12:39;3.75;;;1.70;;
46230;SDS011;31949;51.404;-0.038;2024-02-15T05:15:15;4.10;;;2.15;;
46230;SDS011;31949;51.404;-0.038;2024-02-15T05:17:45;5.88;;;2.83;;
46230;SDS011;31949;51.404;-0.038;2024-02-15T05:20:12;5.03;;;1.95;;
46230;SDS011;31949;51.404;-0.038;2024-02-15T05:22:41;4.07;;;1.85;;
46230;SDS011;31949;51.404;-0.038;2024-02-15T05:25:17;4.55;;;2.10;;
46230;SDS011;31949;51.404;-0.038;2024-02-15T05:27:51;4.60;;;2.72;;
46230;SDS011;31949;51.404;-0.038;2024-02-15T05:30:24;5.93;;;2.70;;
46230;SDS011;31949;51.404;-0.038;2024-02-15T05:32:51;8.32;;;3.90;;
46230;SDS011;31949;51.404;-0.038;2024-02-15T05:35:21;5.43;;;3.17;;
46230;SDS011;31949;51.404;-0.038;2024-02-15T05:37:48;5.95;;;4.03;;
46230;SDS011;31949;51.404;-0.038;2024-02-15T05:40:16;6.18;;;3.95;;
46230;SDS011;31949;51.404;-0.038;2024-02-15T05:42:44;9.73;;;4.47;;
46230;SDS011;31949;51.404;-0.038;2024-02-15T05:47:52;6.90;;;3.50;;
46230;SDS011;31949;51.404;-0.038;2024-02-15T05:50:20;7.22;;;3.53;;
46230;SDS011;31949;51.404;-0.038;2024-02-15T05:52:48;8.05;;;4.13;;
46230;SDS011;31949;51.404;-0.038;2024-02-15T05:55:15;7.68;;;3.83;;
46230;SDS011;31949;51.404;-0.038;2024-02-15T05:57:44;4.90;;;3.78;;
46230;SDS011;31949;51.404;-0.038;2024-02-15T06:00:12;7.10;;;4.10;;
46230;SDS011;31949;51.404;-0.038;2024-02-15T06:02:48;11.13;;;4.07;;
46230;SDS011;31949;51.404;-0.038;2024-02-15T06:05:17;7.80;;;4.13;;
46230;SDS011;31949;51.404;-0.038;2024-02-15T06:07:44;6.47;;;3.55;;
46230;SDS011;31949;51.404;-0.038;2024-02-15T06:10:13;7.10;;;4.00;;
46230;SDS011;31949;51.404;-0.038;2024-02-15T06:12:42;7.85;;;3.88;;
46230;SDS011;31949;51.404;-0.038;2024-02-15T06:15:10;8.93;;;4.07;;
46230;SDS011;31949;51.404;-0.038;2024-02-15T06:17:43;8.57;;;4.22;;
46230;SDS011;31949;51.404;-0.038;2024-02-15T06:20:12;6.32;;;3.50;;
46230;SDS011;31949;51.404;-0.038;2024-02-15T06:22:45;5.05;;;3.45;;
46230;SDS011;31949;51.404;-0.038;2024-02-15T06:25:13;7.65;;;3.70;;
46230;SDS011;31949;51.404;-0.038;2024-02-15T06:27:41;6.47;;;3.28;;
46230;SDS011;31949;51.404;-0.038;2024-02-15T06:30:09;7.78;;;4.03;;
46230;SDS011;31949;51.404;-0.038;2024-02-15T06:32:57;7.72;;;3.90;;
46230;SDS011;31949;51.404;-0.038;2024-02-15T06:35:43;8.40;;;3.42;;
46230;SDS011;31949;51.404;-0.038;2024-02-15T06:38:29;6.25;;;2.83;;
46230;SDS011;31949;51.404;-0.038;2024-02-15T06:41:15;7.10;;;3.33;;
46230;SDS011;31949;51.404;-0.038;2024-02-15T06:43:42;6.82;;;2.78;;
46230;SDS011;31949;51.404;-0.038;2024-02-15T06:46:10;4.70;;;2.28;;
46230;SDS011;31949;51.404;-0.038;2024-02-15T06:48:41;3.83;;;2.80;;
46230;SDS011;31949;51.404;-0.038;2024-02-15T06:51:12;6.68;;;2.95;;
46230;SDS011;31949;51.404;-0.038;2024-02-15T06:56:11;6.43;;;3.67;;
46230;SDS011;31949;51.404;-0.038;2024-02-15T06:58:39;4.32;;;2.47;;
46230;SDS011;31949;51.404;-0.038;2024-02-15T07:01:09;8.02;;;3.25;;
46230;SDS011;31949;51.404;-0.038;2024-02-15T07:03:40;4.53;;;2.13;;
46230;SDS011;31949;51.404;-0.038;2024-02-15T07:06:07;5.13;;;2.33;;
46230;SDS011;31949;51.404;-0.038;2024-02-15T07:08:34;7.03;;;3.03;;
46230;SDS011;31949;51.404;-0.038;2024-02-15T07:11:02;7.20;;;3.38;;
46230;SDS011;31949;51.404;-0.038;2024-02-15T07:13:30;5.53;;;3.20;;
46230;SDS011;31949;51.404;-0.038;2024-02-15T07:15:58;5.10;;;2.92;;
46230;SDS011;31949;51.404;-0.038;2024-02-15T07:18:26;4.25;;;2.50;;
46230;SDS011;31949;51.404;-0.038;2024-02-15T07:20:55;5.88;;;2.53;;
46230;SDS011;31949;51.404;-0.038;2024-02-15T07:23:26;6.80;;;2.35;;
46230;SDS011;31949;51.404;-0.038;2024-02-15T07:25:54;6.68;;;3.55;;
46230;SDS011;31949;51.404;-0.038;2024-02-15T07:28:21;4.15;;;2.90;;
46230;SDS011;31949;51.404;-0.038;2024-02-15T07:30:51;5.78;;;2.58;;
46230;SDS011;31949;51.404;-0.038;2024-02-15T07:33:24;5.13;;;2.50;;
46230;SDS011;31949;51.404;-0.038;2024-02-15T07:35:52;4.68;;;2.30;;
46230;SDS011;31949;51.404;-0.038;2024-02-15T07:38:20;5.68;;;3.17;;
46230;SDS011;31949;51.404;-0.038;2024-02-15T07:40:52;5.43;;;3.30;;
46230;SDS011;31949;51.404;-0.038;2024-02-15T07:43:20;5.30;;;2.63;;
46230;SDS011;31949;51.404;-0.038;2024-02-15T07:45:47;4.90;;;2.25;;
46230;SDS011;31949;51.404;-0.038;2024-02-15T07:48:16;4.10;;;2.05;;
46230;SDS011;31949;51.404;-0.038;2024-02-15T07:50:43;4.97;;;2.20;;
46230;SDS011;31949;51.404;-0.038;2024-02-15T07:53:11;5.85;;;2.50;;
46230;SDS011;31949;51.404;-0.038;2024-02-15T07:55:40;5.80;;;2.20;;
46230;SDS011;31949;51.404;-0.038;2024-02-15T07:58:08;5.03;;;2.35;;
46230;SDS011;31949;51.404;-0.038;2024-02-15T08:00:35;5.10;;;2.10;;
46230;SDS011;31949;51.404;-0.038;2024-02-15T08:03:05;4.55;;;2.50;;
46230;SDS011;31949;51.404;-0.038;2024-02-15T08:05:32;6.88;;;2.75;;
46230;SDS011;31949;51.404;-0.038;2024-02-15T08:08:00;3.88;;;2.30;;
46230;SDS011;31949;51.404;-0.038;2024-02-15T08:10:27;5.85;;;2.10;;
46230;SDS011;31949;51.404;-0.038;2024-02-15T08:12:56;4.68;;;2.22;;
46230;SDS011;31949;51.404;-0.038;2024-02-15T08:15:25;4.25;;;2.55;;
46230;SDS011;31949;51.404;-0.038;2024-02-15T08:17:54;3.47;;;2.45;;
46230;SDS011;31949;51.404;-0.038;2024-02-15T08:20:22;4.30;;;2.20;;
46230;SDS011;31949;51.404;-0.038;2024-02-15T08:22:50;5.47;;;2.33;;
46230;SDS011;31949;51.404;-0.038;2024-02-15T08:25:17;7.85;;;2.45;;
46230;SDS011;31949;51.404;-0.038;2024-02-15T08:27:48;3.22;;;1.65;;
46230;SDS011;31949;51.404;-0.038;2024-02-15T08:30:18;3.95;;;2.45;;
46230;SDS011;31949;51.404;-0.038;2024-02-15T08:32:50;5.32;;;2.35;;
46230;SDS011;31949;51.404;-0.038;2024-02-15T08:35:22;4.10;;;2.03;;
46230;SDS011;31949;51.404;-0.038;2024-02-15T08:37:49;5.72;;;2.30;;
46230;SDS011;31949;51.404;-0.038;2024-02-15T08:40:18;5.05;;;1.85;;
46230;SDS011;31949;51.404;-0.038;2024-02-15T08:42:51;4.88;;;2.20;;
46230;SDS011;31949;51.404;-0.038;2024-02-15T08:45:18;3.92;;;1.75;;
46230;SDS011;31949;51.404;-0.038;2024-02-15T08:47:47;3.90;;;1.58;;
46230;SDS011;31949;51.404;-0.038;2024-02-15T08:50:16;8.55;;;2.40;;
46230;SDS011;31949;51.404;-0.038;2024-02-15T08:52:44;1.73;;;1.58;;
46230;SDS011;31949;51.404;-0.038;2024-02-15T08:55:13;3.22;;;1.73;;
46230;SDS011;31949;51.404;-0.038;2024-02-15T08:57:41;3.50;;;2.42;;
46230;SDS011;31949;51.404;-0.038;2024-02-15T09:00:11;3.40;;;1.67;;
46230;SDS011;31949;51.404;-0.038;2024-02-15T09:02:44;2.80;;;1.40;;
46230;SDS011;31949;51.404;-0.038;2024-02-15T09:05:12;4.68;;;1.83;;
46230;SDS011;31949;51.404;-0.038;2024-02-15T09:07:41;3.22;;;1.70;;
46230;SDS011;31949;51.404;-0.038;2024-02-15T09:10:10;3.85;;;1.73;;
46230;SDS011;31949;51.404;-0.038;2024-02-15T09:12:38;6.00;;;2.25;;
46230;SDS011;31949;51.404;-0.038;2024-02-15T09:15:07;4.00;;;1.88;;
46230;SDS011;31949;51.404;-0.038;2024-02-15T09:17:35;2.70;;;1.98;;
46230;SDS011;31949;51.404;-0.038;2024-02-15T09:22:35;5.38;;;2.15;;
46230;SDS011;31949;51.404;-0.038;2024-02-15T09:25:03;2.83;;;1.90;;
46230;SDS011;31949;51.404;-0.038;2024-02-15T09:27:30;3.78;;;1.75;;
46230;SDS011;31949;51.404;-0.038;2024-02-15T09:29:57;3.03;;;1.75;;
46230;SDS011;31949;51.404;-0.038;2024-02-15T09:32:24;4.10;;;1.73;;
46230;SDS011;31949;51.404;-0.038;2024-02-15T09:34:51;2.92;;;1.42;;
46230;SDS011;31949;51.404;-0.038;2024-02-15T09:37:19;7.60;;;2.50;;
46230;SDS011;31949;51.404;-0.038;2024-02-15T09:39:46;2.72;;;1.77;;
46230;SDS011;31949;51.404;-0.038;2024-02-15T09:42:14;6.75;;;2.40;;
46230;SDS011;31949;51.404;-0.038;2024-02-15T09:44:41;5.50;;;2.28;;
46230;SDS011;31949;51.404;-0.038;2024-02-15T09:47:11;3.50;;;2.15;;
46230;SDS011;31949;51.404;-0.038;2024-02-15T09:49:41;4.15;;;2.20;;
46230;SDS011;31949;51.404;-0.038;2024-02-15T09:52:09;4.85;;;2.05;;
46230;SDS011;31949;51.404;-0.038;2024-02-15T09:54:42;2.88;;;1.65;;
46230;SDS011;31949;51.404;-0.038;2024-02-15T09:57:11;4.50;;;1.95;;
46230;SDS011;31949;51.404;-0.038;2024-02-15T09:59:38;4.57;;;3.03;;
46230;SDS011;31949;51.404;-0.038;2024-02-15T10:02:07;4.47;;;1.60;;
46230;SDS011;31949;51.404;-0.038;2024-02-15T10:04:39;2.67;;;2.30;;
46230;SDS011;31949;51.404;-0.038;2024-02-15T10:07:07;7.38;;;4.95;;
46230;SDS011;31949;51.404;-0.038;2024-02-15T10:09:36;4.82;;;3.22;;
46230;SDS011;31949;51.404;-0.038;2024-02-15T10:12:03;3.58;;;2.38;;
46230;SDS011;31949;51.404;-0.038;2024-02-15T10:14:33;4.55;;;2.47;;
46230;SDS011;31949;51.404;-0.038;2024-02-15T10:17:08;3.65;;;1.95;;
46230;SDS011;31949;51.404;-0.038;2024-02-15T10:19:38;3.20;;;1.67;;
46230;SDS011;31949;51.404;-0.038;2024-02-15T10:22:06;5.22;;;2.08;;
46230;SDS011;31949;51.404;-0.038;2024-02-15T10:24:35;2.80;;;1.70;;
46230;SDS011;31949;51.404;-0.038;2024-02-15T10:27:03;3.90;;;2.22;;
46230;SDS011;31949;51.404;-0.038;2024-02-15T10:29:34;3.08;;;2.10;;
46230;SDS011;31949;51.404;-0.038;2024-02-15T10:32:02;5.65;;;1.70;;
46230;SDS011;31949;51.404;-0.038;2024-02-15T10:34:30;4.68;;;1.90;;
46230;SDS011;31949;51.404;-0.038;2024-02-15T10:37:10;2.28;;;1.58;;
46230;SDS011;31949;51.404;-0.038;2024-02-15T10:39:38;2.80;;;1.63;;
46230;SDS011;31949;51.404;-0.038;2024-02-15T10:42:07;4.05;;;1.88;;
46230;SDS011;31949;51.404;-0.038;2024-02-15T10:44:38;4.10;;;1.98;;
46230;SDS011;31949;51.404;-0.038;2024-02-15T10:47:07;2.83;;;1.52;;
46230;SDS011;31949;51.404;-0.038;2024-02-15T10:49:35;3.28;;;1.90;;
46230;SDS011;31949;51.404;-0.038;2024-02-15T10:52:03;5.95;;;2.08;;
46230;SDS011;31949;51.404;-0.038;2024-02-15T10:57:24;2.75;;;1.52;;
46230;SDS011;31949;51.404;-0.038;2024-02-15T11:02:37;3.22;;;1.80;;
46230;SDS011;31949;51.404;-0.038;2024-02-15T11:05:09;3.33;;;1.77;;
46230;SDS011;31949;51.404;-0.038;2024-02-15T11:07:37;2.50;;;1.50;;
46230;SDS011;31949;51.404;-0.038;2024-02-15T11:10:06;5.90;;;1.40;;
46230;SDS011;31949;51.404;-0.038;2024-02-15T11:12:37;4.50;;;2.08;;
46230;SDS011;31949;51.404;-0.038;2024-02-15T11:15:07;1.88;;;1.55;;
46230;SDS011;31949;51.404;-0.038;2024-02-15T11:20:07;3.47;;;1.90;;
46230;SDS011;31949;51.404;-0.038;2024-02-15T11:22:38;4.03;;;1.90;;
46230;SDS011;31949;51.404;-0.038;2024-02-15T11:25:06;3.25;;;1.67;;
46230;SDS011;31949;51.404;-0.038;2024-02-15T11:30:08;3.28;;;1.60;;
46230;SDS011;31949;51.404;-0.038;2024-02-15T11:32:44;4.15;;;1.65;;
46230;SDS011;31949;51.404;-0.038;2024-02-15T11:35:21;3.55;;;1.55;;
46230;SDS011;31949;51.404;-0.038;2024-02-15T11:37:51;1.65;;;1.27;;
46230;SDS011;31949;51.404;-0.038;2024-02-15T11:43:36;3.65;;;1.60;;
46230;SDS011;31949;51.404;-0.038;2024-02-15T11:46:27;1.83;;;1.10;;
46230;SDS011;31949;51.404;-0.038;2024-02-15T11:51:28;4.63;;;1.67;;
46230;SDS011;31949;51.404;-0.038;2024-02-15T11:59:15;4.03;;;1.75;;
46230;SDS011;31949;51.404;-0.038;2024-02-15T12:01:56;4.60;;;1.80;;
46230;SDS011;31949;51.404;-0.038;2024-02-15T12:04:42;5.47;;;1.48;;
46230;SDS011;31949;51.404;-0.038;2024-02-15T12:07:29;3.13;;;1.63;;
46230;SDS011;31949;51.404;-0.038;2024-02-15T12:10:16;4.22;;;1.33;;
46230;SDS011;31949;51.404;-0.038;2024-02-15T12:13:03;3.20;;;1.58;;
46230;SDS011;31949;51.404;-0.038;2024-02-15T12:15:58;2.78;;;1.77;;
46230;SDS011;31949;51.404;-0.038;2024-02-15T12:18:45;3.55;;;1.50;;
46230;SDS011;31949;51.404;-0.038;2024-02-15T12:21:16;2.78;;;1.30;;
46230;SDS011;31949;51.404;-0.038;2024-02-15T12:23:45;2.60;;;1.63;;
46230;SDS011;31949;51.404;-0.038;2024-02-15T12:26:12;2.45;;;1.25;;
46230;SDS011;31949;51.404;-0.038;2024-02-15T12:28:41;2.70;;;1.23;;
46230;SDS011;31949;51.404;-0.038;2024-02-15T12:31:14;1.45;;;1.10;;
46230;SDS011;31949;51.404;-0.038;2024-02-15T12:33:41;3.13;;;1.60;;
46230;SDS011;31949;51.404;-0.038;2024-02-15T12:36:08;2.95;;;1.65;;
46230;SDS011;31949;51.404;-0.038;2024-02-15T12:38:36;4.20;;;1.85;;
46230;SDS011;31949;51.404;-0.038;2024-02-15T12:41:20;3.03;;;1.50;;
46230;SDS011;31949;51.404;-0.038;2024-02-15T12:43:52;1.88;;;1.25;;
46230;SDS011;31949;51.404;-0.038;2024-02-15T12:46:20;2.70;;;1.45;;
46230;SDS011;31949;51.404;-0.038;2024-02-15T12:48:48;3.50;;;1.40;;
46230;SDS011;31949;51.404;-0.038;2024-02-15T12:51:16;3.22;;;1.73;;
46230;SDS011;31949;51.404;-0.038;2024-02-15T12:53:44;1.88;;;1.45;;
46230;SDS011;31949;51.404;-0.038;2024-02-15T12:56:19;2.67;;;1.65;;
46230;SDS011;31949;51.404;-0.038;2024-02-15T12:58:47;4.13;;;1.55;;
46230;SDS011;31949;51.404;-0.038;2024-02-15T13:01:15;1.95;;;1.20;;
46230;SDS011;31949;51.404;-0.038;2024-02-15T13:03:43;3.78;;;1.73;;
46230;SDS011;31949;51.404;-0.038;2024-02-15T13:06:10;2.00;;;1.02;;
46230;SDS011;31949;51.404;-0.038;2024-02-15T13:08:37;3.38;;;1.50;;
46230;SDS011;31949;51.404;-0.038;2024-02-15T13:11:05;1.92;;;1.13;;
46230;SDS011;31949;51.404;-0.038;2024-02-15T13:13:32;3.25;;;1.20;;
46230;SDS011;31949;51.404;-0.038;2024-02-15T13:16:01;2.97;;;1.45;;
46230;SDS011;31949;51.404;-0.038;2024-02-15T13:18:29;2.05;;;1.48;;
46230;SDS011;31949;51.404;-0.038;2024-02-15T13:20:56;3.17;;;1.45;;
46230;SDS011;31949;51.404;-0.038;2024-02-15T13:23:26;4.78;;;1.20;;
46230;SDS011;31949;51.404;-0.038;2024-02-15T13:25:53;1.55;;;1.25;;
46230;SDS011;31949;51.404;-0.038;2024-02-15T13:28:23;1.80;;;1.30;;
46230;SDS011;31949;51.404;-0.038;2024-02-15T13:30:51;1.80;;;1.08;;
46230;SDS011;31949;51.404;-0.038;2024-02-15T13:33:21;6.00;;;1.80;;
46230;SDS011;31949;51.404;-0.038;2024-02-15T13:35:49;2.13;;;1.20;;
46230;SDS011;31949;51.404;-0.038;2024-02-15T13:38:16;1.02;;;0.80;;
46230;SDS011;31949;51.404;-0.038;2024-02-15T13:40:51;3.90;;;1.08;;
46230;SDS011;31949;51.404;-0.038;2024-02-15T13:43:18;4.75;;;1.17;;
46230;SDS011;31949;51.404;-0.038;2024-02-15T13:45:46;2.85;;;1.10;;
46230;SDS011;31949;51.404;-0.038;2024-02-15T13:48:15;3.10;;;1.33;;
46230;SDS011;31949;51.404;-0.038;2024-02-15T13:50:43;1.95;;;1.00;;
46230;SDS011;31949;51.404;-0.038;2024-02-15T13:53:11;4.05;;;1.20;;
46230;SDS011;31949;51.404;-0.038;2024-02-15T13:55:40;3.22;;;1.23;;
46230;SDS011;31949;51.404;-0.038;2024-02-15T13:58:08;2.63;;;1.00;;
46230;SDS011;31949;51.404;-0.038;2024-02-15T14:00:40;2.20;;;0.85;;
46230;SDS011;31949;51.404;-0.038;2024-02-15T14:03:10;0.93;;;0.70;;
46230;SDS011;31949;51.404;-0.038;2024-02-15T14:05:38;3.47;;;1.25;;
46230;SDS011;31949;51.404;-0.038;2024-02-15T14:08:08;3.83;;;1.40;;
46230;SDS011;31949;51.404;-0.038;2024-02-15T14:10:38;1.52;;;0.82;;
46230;SDS011;31949;51.404;-0.038;2024-02-15T14:13:06;2.35;;;1.52;;
46230;SDS011;31949;51.404;-0.038;2024-02-15T14:15:35;4.05;;;1.73;;
46230;SDS011;31949;51.404;-0.038;2024-02-15T14:18:11;2.60;;;1.00;;
46230;SDS011;31949;51.404;-0.038;2024-02-15T14:20:46;1.88;;;1.05;;
46230;SDS011;31949;51.404;-0.038;2024-02-15T14:23:14;2.67;;;1.00;;
46230;SDS011;31949;51.404;-0.038;2024-02-15T14:25:42;1.88;;;1.25;;
46230;SDS011;31949;51.404;-0.038;2024-02-15T14:28:12;2.85;;;1.00;;
46230;SDS011;31949;51.404;-0.038;2024-02-15T14:30:41;3.33;;;1.10;;
46230;SDS011;31949;51.404;-0.038;2024-02-15T14:33:27;2.88;;;1.33;;
46230;SDS011;31949;51.404;-0.038;2024-02-15T14:35:57;1.80;;;1.10;;
46230;SDS011;31949;51.404;-0.038;2024-02-15T14:38:26;2.60;;;1.15;;
46230;SDS011;31949;51.404;-0.038;2024-02-15T14:40:54;2.00;;;1.20;;
46230;SDS011;31949;51.404;-0.038;2024-02-15T14:43:23;2.50;;;1.13;;
46230;SDS011;31949;51.404;-0.038;2024-02-15T14:45:54;2.47;;;1.57;;
46230;SDS011;31949;51.404;-0.038;2024-02-15T14:48:24;2.17;;;1.27;;
46230;SDS011;31949;51.404;-0.038;2024-02-15T14:50:52;4.00;;;1.35;;
46230;SDS011;31949;51.404;-0.038;2024-02-15T14:53:20;1.63;;;1.00;;
46230;SDS011;31949;51.404;-0.038;2024-02-15T14:55:49;3.28;;;1.52;;
46230;SDS011;31949;51.404;-0.038;2024-02-15T14:58:17;2.53;;;1.15;;
46230;SDS011;31949;51.404;-0.038;2024-02-15T15:00:45;3.20;;;1.45;;
46230;SDS011;31949;51.404;-0.038;2024-02-15T15:03:15;3.55;;;1.70;;
46230;SDS011;31949;51.404;-0.038;2024-02-15T15:05:43;4.82;;;1.52;;
46230;SDS011;31949;51.404;-0.038;2024-02-15T15:08:30;2.95;;;1.20;;
46230;SDS011;31949;51.404;-0.038;2024-02-15T15:11:17;2.67;;;0.98;;
46230;SDS011;31949;51.404;-0.038;2024-02-15T15:14:03;2.28;;;1.00;;
46230;SDS011;31949;51.404;-0.038;2024-02-15T15:16:32;2.75;;;1.23;;
46230;SDS011;31949;51.404;-0.038;2024-02-15T15:19:01;2.55;;;0.90;;